x

Cape Elizabeth- 45nm Nw Of Aberdeen, Wa (46041) Wave Buoy

8:50 - Wed 1st Oct 2014 All times are PDT. -7 hours from GMT.

  • Sig Wave height 4.3ft
  • Swell Direction
  • Peak Period 8s
  • Average Period 7s
  • Wind
    9mph
  • Ar Temp 60°f
  • Sea Pressure 1022.8mb
  • Cape Elizabeth- 45nm Nw Of Aberdeen, Wa
  • Cape Elizabeth- 45nm Nw Of Aberdeen, Wa

More Historic Weather Station data

Upgrade to MSW Pro to gain access to the past 30 days of data for over 8000 Wavebouys and Weather Stations around the globe.

Join Pro

Comparision Forecast

View Surf forecast
   
Qua 10/01 8:50 4.5ft 8s 7s 9
mph
1022.8mb 60f
7:50 5ft 9s 7s 9 11 mph 1022.3mb 60f
6:50 4.5ft 10s 7s 4 7 mph 1022.2mb 60f
5:50 5ft 10s 7s 4
mph
1022.5mb 60f
4:50 5ft 10s 7s 7
mph
1022.8mb 60f
3:50 5.5ft 10s 7s 4
mph
1022.7mb 60f
2:50 6ft 10s 7s 2 4 mph 1023mb 60f
1:50 5ft 9s 7s 4 7 mph 1023.3mb 60f
12:50 5.5ft 10s 7s 2 4 mph 1023.4mb 60f
11:50 6ft 9s 7s 7 9 mph 1023.5mb 59f
10:50 6ft 10s 7s 9
mph
1023.6mb 60f
9:50 6ft 10s 7s 7 9 mph 1023.4mb 60f
8:50 7ft 9s 7s 9 11 mph 1023.2mb 59f
7:50 7ft 9s 7s 9 11 mph 1023.2mb 59f
6:50 6ft 10s 7s 9 11 mph 1022.8mb 59f
5:50 6ft 10s 7s 11 13 mph 1022.7mb 59f
4:50 6.5ft 10s 7s 11 13 mph 1022.7mb 59f
3:50 7ft 10s 7s 11 13 mph 1022.5mb 59f
2:50 6.5ft 11s 7s 11 13 mph 1022.8mb 59f
1:50 7ft 11s 7s 11 13 mph 1022.7mb 59f
12:50 7ft 11s 7s 11 13 mph 1022.6mb 60f
Ter 09/30 11:50 7ft 11s 7s 9 13 mph 1022.3mb 59f
10:50 8.5ft 11s 8s 11 13 mph 1022.3mb 60f
9:50 8ft 11s 7s 11 13 mph 1022.1mb 60f
8:50 8ft 10s 7s 13 16 mph 1021.7mb 60f
7:50 8ft 11s 7s 13 18 mph 1021.5mb 60f
6:50 8ft 11s 7s 16 18 mph 1020.9mb 60f
5:50 8.5ft 11s 8s 16 18 mph 1020.8mb 61f
4:50 8ft 11s 7s 11 13 mph 1020.6mb 61f
3:50 8ft 11s 8s 11 16 mph 1020.5mb 61f
2:50 8ft 11s 8s 13 16 mph 1020.5mb 61f
1:50 8ft 11s 8s 11 13 mph 1020.6mb 61f
12:50 8ft 11s 8s 11 13 mph 1020.5mb 60f
11:50 7.5ft 11s 8s 9
mph
1020.3mb 60f
10:50 7ft 11s 8s 9 11 mph 1020mb 60f
9:50 7ft 11s 7s 9 11 mph 1019.5mb 60f
8:50 8ft 11s 8s 9 13 mph 1019mb 60f
7:50 7ft 11s 7s 11 16 mph 1018.5mb 60f
6:50 7ft 11s 7s 13 18 mph 1018.1mb 60f
5:50 7ft 10s 7s 16 18 mph 1017.7mb 60f
4:50 6.5ft 11s 7s 11 13 mph 1017.3mb 60f
3:50 7ft 10s 7s 13
mph
1017.1mb 60f
2:50 6.5ft 10s 7s 13 16 mph 1016.9mb 60f
1:50 7ft 10s 7s 11 16 mph 1016.6mb 60f
12:50 6.5ft 11s 7s 11 16 mph 1016.4mb 60f
Seg 09/29 11:50 8ft 10s 7s 13 18 mph 1016.1mb 60f
10:50 7ft 10s 7s 11 13 mph 1016.1mb 61f
9:50 6.5ft 10s 7s 11 13 mph 1015.8mb 61f
8:50 7.5ft 12s 8s 13 18 mph 1015.4mb 60f
7:50 7ft 11s 8s 11 13 mph 1014.8mb 61f
6:50 6.5ft 11s 7s 11 13 mph 1014.3mb 61f
5:50 6.5ft 11s 7s 11
mph
1013.9mb 61f
4:50 6.5ft 12s 7s 13 16 mph 1013.5mb 61f
3:50 7ft 12s 7s 13 16 mph 1013.3mb 61f
2:50 7ft 11s 7s 16 18 mph 1012.9mb 61f
1:50 7ft 12s 7s 13 16 mph 1012.9mb 61f
12:50 7ft 12s 7s 20 22 mph 1012.6mb 61f
11:50 7ft 12s 8s 18 22 mph 1012.1mb 61f
10:50 6ft 10s 7s 18 20 mph 1011.8mb 60f
9:50 6.5ft 13s 7s 16 20 mph 1011.7mb 60f
8:50 6ft 13s 8s 16 18 mph 1011.8mb 59f
7:50 5.5ft 14s 8s 11 13 mph 1011.9mb 59f
6:50 5ft 10s 8s 11 13 mph 1011.8mb 59f
5:50 5ft 14s 8s 7 9 mph 1011.9mb 59f
4:50 4.5ft 8s 8s 7 9 mph 1012mb 59f
3:50 4ft 8s 7s 4
mph
1012.4mb 60f
2:50 3.5ft 8s 7s 2
mph
1012.6mb 59f
1:50 3.5ft 7s 7s 2
mph
1012.9mb 60f
12:50 3ft 8s 7s 7
mph
1013.3mb 59f
Dom 09/28 11:50 3ft 8s 6s 7 9 mph 1013.3mb 59f
10:50 3ft 7s 6s 4 7 mph 1013.4mb 59f
9:50 2.5ft 7s 6s 7 9 mph 1013.5mb 59f
8:50 3ft 7s 6s 4 7 mph 1013.5mb 59f
7:50 3ft 7s 5s 11
mph
1013.7mb 58f
6:50 3ft 7s 5s 9 11 mph 1013.9mb 57f
5:50 3ft 7s 6s 11 13 mph 1014.2mb 56f
4:50 3ft 8s 6s 11 13 mph 1014.6mb 58f